createdAt,value
2018-05-13T00:00:03.824Z,11.90
2018-05-13T00:01:04.053Z,11.20
2018-05-13T00:02:04.283Z,11.40
2018-05-13T00:03:04.514Z,10.20
2018-05-13T00:04:04.742Z,9.20
2018-05-13T00:05:04.971Z,9.40
2018-05-13T00:06:05.201Z,9.50
2018-05-13T00:07:05.440Z,9.00
2018-05-13T00:08:05.661Z,9.40
2018-05-13T00:09:05.894Z,9.80
2018-05-13T00:10:06.127Z,9.50
2018-05-13T00:11:06.357Z,9.40
2018-05-13T00:12:06.590Z,8.90
2018-05-13T00:13:06.820Z,9.80
2018-05-13T00:14:07.049Z,9.70
2018-05-13T00:15:07.276Z,9.40
2018-05-13T00:16:07.508Z,10.40
2018-05-13T00:17:07.740Z,11.20
2018-05-13T00:18:07.973Z,10.70
2018-05-13T00:19:08.204Z,9.80
2018-05-13T00:20:08.426Z,10.20
2018-05-13T00:21:08.657Z,9.30
2018-05-13T00:22:08.887Z,8.40
2018-05-13T00:23:09.116Z,9.40
2018-05-13T00:24:09.350Z,9.90
2018-05-13T00:25:09.577Z,9.80
2018-05-13T00:26:09.815Z,9.30
2018-05-13T00:27:10.030Z,9.50
2018-05-13T00:28:10.278Z,9.10
2018-05-13T00:29:10.509Z,9.20
2018-05-13T00:30:10.740Z,8.70
2018-05-13T00:31:10.966Z,9.30
2018-05-13T00:32:11.195Z,9.40
2018-05-13T00:33:11.430Z,10.10
2018-05-13T00:34:11.662Z,9.80
2018-05-13T00:35:11.894Z,9.30
2018-05-13T00:36:12.121Z,10.00
2018-05-13T00:37:12.352Z,9.70
2018-05-13T00:38:12.579Z,9.40
2018-05-13T00:39:12.809Z,9.00
2018-05-13T00:40:13.041Z,9.10
2018-05-13T00:41:13.268Z,8.80
2018-05-13T00:42:13.495Z,9.30
2018-05-13T00:43:13.724Z,8.90
2018-05-13T00:44:13.958Z,8.70
2018-05-13T00:45:14.193Z,9.70
2018-05-13T00:46:14.426Z,9.50
2018-05-13T00:47:14.647Z,10.00
2018-05-13T00:48:14.881Z,9.60
2018-05-13T00:49:15.110Z,8.90
2018-05-13T00:50:15.339Z,10.00
2018-05-13T00:51:15.569Z,9.60
2018-05-13T00:52:15.801Z,10.30
2018-05-13T00:53:16.030Z,10.20
2018-05-13T00:54:16.261Z,10.50
2018-05-13T00:55:16.493Z,9.40
2018-05-13T00:56:16.727Z,11.10
2018-05-13T00:57:16.952Z,10.10
2018-05-13T00:58:17.178Z,9.50
2018-05-13T00:59:17.405Z,9.80
2018-05-13T01:00:17.634Z,10.10
2018-05-13T01:01:17.863Z,10.70
2018-05-13T01:02:18.097Z,9.20
2018-05-13T01:03:18.330Z,9.40
2018-05-13T01:04:18.565Z,9.30
2018-05-13T01:05:18.790Z,10.20
2018-05-13T01:06:19.020Z,10.40
2018-05-13T01:07:19.250Z,9.60
2018-05-13T01:08:19.478Z,9.50
2018-05-13T01:09:19.708Z,10.10
2018-05-13T01:10:19.943Z,10.40
2018-05-13T01:11:20.172Z,9.80
2018-05-13T01:12:20.404Z,10.10
2018-05-13T01:13:20.638Z,9.70
2018-05-13T01:14:20.862Z,9.80
2018-05-13T01:15:21.091Z,9.70
2018-05-13T01:16:21.323Z,9.70
2018-05-13T01:17:21.560Z,9.90
2018-05-13T01:18:21.782Z,10.50
2018-05-13T01:19:22.010Z,10.50
2018-05-13T01:20:22.244Z,9.40
2018-05-13T01:21:22.472Z,9.70
2018-05-13T01:22:22.708Z,10.10
2018-05-13T01:23:22.933Z,10.20
2018-05-13T01:24:23.164Z,11.50
2018-05-13T01:25:23.392Z,10.10
2018-05-13T01:26:23.620Z,10.80
2018-05-13T01:27:23.852Z,10.40
2018-05-13T01:28:24.077Z,10.30
2018-05-13T01:29:24.312Z,9.90
2018-05-13T01:30:24.539Z,10.70
2018-05-13T01:31:24.775Z,10.40
2018-05-13T01:32:25.002Z,9.80
2018-05-13T01:33:25.231Z,10.00
2018-05-13T01:34:25.473Z,10.80
2018-05-13T01:35:25.697Z,10.20
2018-05-13T01:36:25.920Z,10.40
2018-05-13T01:37:26.146Z,10.10
2018-05-13T01:38:26.382Z,10.60
2018-05-13T01:39:26.605Z,9.90
2018-05-13T01:40:26.836Z,10.30
2018-05-13T01:41:27.068Z,9.70
2018-05-13T01:42:27.290Z,10.40
2018-05-13T01:43:27.518Z,9.60
2018-05-13T01:44:27.746Z,10.00
2018-05-13T01:45:27.974Z,9.90
2018-05-13T01:46:28.206Z,10.00
2018-05-13T01:47:28.434Z,10.10
2018-05-13T01:48:28.662Z,10.30
2018-05-13T01:49:28.897Z,10.40
2018-05-13T01:50:29.127Z,10.40
2018-05-13T01:51:29.354Z,11.10
2018-05-13T01:52:29.584Z,10.30
2018-05-13T01:53:29.814Z,10.90
2018-05-13T01:54:30.043Z,9.50
2018-05-13T01:55:30.270Z,10.70
2018-05-13T01:56:30.502Z,10.00
2018-05-13T01:57:30.734Z,10.60
2018-05-13T01:58:30.966Z,11.70
2018-05-13T01:59:31.191Z,10.90
2018-05-13T02:00:31.418Z,10.90
2018-05-13T02:01:31.650Z,10.50
2018-05-13T02:02:31.877Z,10.60
2018-05-13T02:03:32.110Z,10.50
2018-05-13T02:04:32.336Z,10.10
2018-05-13T02:05:32.566Z,11.10
2018-05-13T02:06:32.796Z,10.70
2018-05-13T02:07:33.023Z,10.60
2018-05-13T02:08:33.252Z,11.10
2018-05-13T02:09:33.484Z,9.70
2018-05-13T02:10:33.710Z,10.70
2018-05-13T02:11:33.942Z,10.10
2018-05-13T02:12:34.171Z,9.90
2018-05-13T02:13:34.402Z,10.60
2018-05-13T02:14:34.629Z,10.30
2018-05-13T02:15:34.860Z,10.10
2018-05-13T02:16:35.088Z,11.00
2018-05-13T02:17:35.318Z,9.60
2018-05-13T02:18:35.547Z,10.00
2018-05-13T02:19:35.777Z,10.30
2018-05-13T02:20:36.007Z,10.20
2018-05-13T02:21:36.234Z,10.00
2018-05-13T02:22:36.462Z,9.60
2018-05-13T02:23:36.693Z,9.80
2018-05-13T02:24:36.923Z,9.50
2018-05-13T02:25:37.153Z,9.80
2018-05-13T02:26:37.386Z,9.80
2018-05-13T02:27:37.612Z,10.00
2018-05-13T02:28:37.844Z,9.90
2018-05-13T02:29:38.078Z,9.80
2018-05-13T02:30:38.310Z,10.10
2018-05-13T02:31:38.537Z,10.50
2018-05-13T02:32:38.761Z,10.00
2018-05-13T02:33:38.992Z,10.60
2018-05-13T02:34:39.221Z,9.90
2018-05-13T02:35:39.453Z,11.70
2018-05-13T02:36:39.684Z,10.80
2018-05-13T02:37:39.918Z,10.00
2018-05-13T02:38:40.143Z,9.80
2018-05-13T02:39:40.376Z,10.30
2018-05-13T02:40:40.606Z,9.50
2018-05-13T02:41:40.833Z,10.00
2018-05-13T02:42:41.069Z,10.10
2018-05-13T02:43:41.293Z,9.50
2018-05-13T02:44:41.528Z,10.50
2018-05-13T02:45:41.763Z,9.70
2018-05-13T02:46:41.992Z,10.00
2018-05-13T02:47:42.222Z,9.20
2018-05-13T02:48:42.461Z,10.20
2018-05-13T02:49:42.679Z,9.60
2018-05-13T02:50:42.908Z,9.90
2018-05-13T02:51:43.137Z,10.60
2018-05-13T02:52:43.369Z,9.80
2018-05-13T02:53:43.596Z,8.80
2018-05-13T02:54:43.825Z,9.90
2018-05-13T02:55:44.054Z,9.80
2018-05-13T02:56:44.281Z,9.90
2018-05-13T02:57:44.512Z,9.30
2018-05-13T02:58:44.742Z,9.30
2018-05-13T02:59:44.972Z,8.70
2018-05-13T03:00:45.202Z,9.30
2018-05-13T03:01:45.432Z,10.00
2018-05-13T03:02:45.663Z,8.60
2018-05-13T03:03:45.890Z,9.60
2018-05-13T03:04:46.122Z,9.00
2018-05-13T03:05:46.346Z,9.70
2018-05-13T03:06:46.575Z,9.50
2018-05-13T03:07:46.806Z,9.70
2018-05-13T03:08:47.034Z,9.10
2018-05-13T03:09:47.263Z,8.90
2018-05-13T03:10:47.490Z,9.20
2018-05-13T03:11:47.723Z,8.90
2018-05-13T03:12:47.952Z,9.70
2018-05-13T03:13:48.181Z,10.70
2018-05-13T03:14:48.412Z,9.70
2018-05-13T03:15:48.639Z,8.70
2018-05-13T03:16:48.868Z,9.50
2018-05-13T03:17:49.097Z,9.50
2018-05-13T03:18:49.329Z,9.00
2018-05-13T03:19:49.565Z,9.10
2018-05-13T03:20:49.787Z,9.40
2018-05-13T03:21:50.020Z,9.60
2018-05-13T03:22:50.247Z,9.60
2018-05-13T03:23:50.479Z,8.70
2018-05-13T03:24:50.707Z,9.40
2018-05-13T03:25:50.935Z,9.30
2018-05-13T03:26:51.165Z,8.60
2018-05-13T03:27:51.394Z,9.50
2018-05-13T03:28:51.624Z,8.80
2018-05-13T03:29:51.853Z,9.50
2018-05-13T03:30:52.083Z,9.30
2018-05-13T03:31:52.313Z,9.40
2018-05-13T03:32:52.543Z,9.20
2018-05-13T03:33:52.773Z,8.70
2018-05-13T03:34:53.008Z,9.60
2018-05-13T03:35:53.233Z,9.40
2018-05-13T03:36:53.459Z,9.20
2018-05-13T03:37:53.688Z,8.90
2018-05-13T03:38:53.917Z,9.20
2018-05-13T03:39:54.146Z,9.10
2018-05-13T03:40:54.381Z,8.70
2018-05-13T03:41:54.608Z,10.40
2018-05-13T03:42:54.841Z,9.90
2018-05-13T03:43:55.070Z,9.20
2018-05-13T03:44:55.301Z,10.40
2018-05-13T03:45:55.529Z,9.50
2018-05-13T03:46:55.756Z,9.10
2018-05-13T03:47:55.986Z,9.40
2018-05-13T03:48:56.217Z,9.60
2018-05-13T03:49:56.449Z,9.30
2018-05-13T03:50:56.677Z,10.10
2018-05-13T03:51:56.911Z,10.10
2018-05-13T03:52:57.136Z,11.20
2018-05-13T03:53:57.367Z,10.30
2018-05-13T03:54:57.595Z,11.00
2018-05-13T03:55:57.822Z,10.90
2018-05-13T03:56:58.054Z,11.20
2018-05-13T03:57:58.283Z,10.20
2018-05-13T03:58:58.516Z,10.30
2018-05-13T03:59:58.746Z,10.10
2018-05-13T04:00:58.974Z,10.40
2018-05-13T04:01:59.207Z,9.90
2018-05-13T04:02:59.432Z,10.00
2018-05-13T04:03:59.662Z,9.60
2018-05-13T04:04:59.892Z,10.60
2018-05-13T04:06:00.125Z,9.60
2018-05-13T04:07:00.355Z,10.80
2018-05-13T04:08:00.583Z,10.30
2018-05-13T04:09:00.814Z,10.40
2018-05-13T04:10:01.041Z,9.70
2018-05-13T04:11:01.271Z,9.60
2018-05-13T04:12:01.503Z,9.70
2018-05-13T04:13:01.733Z,10.50
2018-05-13T04:14:01.962Z,9.60
2018-05-13T04:15:02.191Z,9.60
2018-05-13T04:16:02.422Z,9.70
2018-05-13T04:17:02.653Z,9.10
2018-05-13T04:18:02.884Z,9.00
2018-05-13T04:19:03.121Z,9.10
2018-05-13T04:20:03.344Z,8.50
2018-05-13T04:21:03.575Z,9.00
2018-05-13T04:22:03.804Z,8.40
2018-05-13T04:23:04.040Z,8.90
2018-05-13T04:24:04.268Z,9.10
2018-05-13T04:25:04.499Z,8.80
2018-05-13T04:26:04.727Z,8.20
2018-05-13T04:27:04.962Z,9.90
2018-05-13T04:28:05.192Z,8.30
2018-05-13T04:29:05.421Z,8.60
2018-05-13T04:30:05.656Z,8.90
2018-05-13T04:31:05.886Z,8.90
2018-05-13T04:32:06.118Z,8.70
2018-05-13T04:33:06.350Z,8.20
2018-05-13T04:34:06.583Z,8.80
2018-05-13T04:35:06.817Z,7.90
2018-05-13T04:36:07.049Z,8.60
2018-05-13T04:37:07.280Z,9.20
2018-05-13T04:38:07.513Z,8.60
2018-05-13T04:39:07.747Z,8.80
2018-05-13T04:40:07.979Z,9.00
2018-05-13T04:41:08.213Z,9.00
2018-05-13T04:42:08.446Z,8.40
2018-05-13T04:43:08.679Z,8.90
2018-05-13T04:44:08.912Z,8.90
2018-05-13T04:45:09.144Z,9.60
2018-05-13T04:46:09.376Z,8.40
2018-05-13T04:47:09.609Z,8.90
2018-05-13T04:48:09.844Z,8.30
2018-05-13T04:49:10.077Z,9.20
2018-05-13T04:50:10.310Z,9.20
2018-05-13T04:51:10.547Z,9.10
2018-05-13T04:52:10.778Z,8.20
2018-05-13T04:53:11.060Z,7.60
2018-05-13T04:54:11.245Z,8.80
2018-05-13T04:55:11.481Z,8.80
2018-05-13T04:56:11.712Z,8.40
2018-05-13T04:57:11.958Z,9.80
2018-05-13T04:58:12.191Z,9.80
2018-05-13T04:59:12.423Z,8.90
2018-05-13T05:00:12.659Z,8.30
2018-05-13T05:01:12.897Z,8.90
2018-05-13T05:02:13.132Z,8.60
2018-05-13T05:03:13.365Z,8.60
2018-05-13T05:04:13.600Z,8.30
2018-05-13T05:05:13.834Z,8.80
2018-05-13T05:06:14.076Z,10.70
2018-05-13T05:07:14.303Z,9.40
2018-05-13T05:08:14.536Z,10.80
2018-05-13T05:09:14.772Z,10.00
2018-05-13T05:10:15.007Z,11.10
2018-05-13T05:11:15.242Z,9.90
2018-05-13T05:12:15.477Z,9.90
2018-05-13T05:13:15.713Z,10.40
2018-05-13T05:14:15.946Z,10.10
2018-05-13T05:15:16.183Z,10.10
2018-05-13T05:16:16.426Z,11.10
2018-05-13T05:17:16.656Z,10.00
2018-05-13T05:18:16.896Z,9.30
2018-05-13T05:19:17.125Z,9.00
2018-05-13T05:20:17.359Z,8.90
2018-05-13T05:21:17.594Z,8.50
2018-05-13T05:22:17.832Z,8.40
2018-05-13T05:23:18.068Z,7.80
2018-05-13T05:24:18.304Z,8.10
2018-05-13T05:25:18.542Z,9.10
2018-05-13T05:26:18.776Z,7.90
2018-05-13T05:27:19.020Z,8.50
2018-05-13T05:28:19.247Z,8.80
2018-05-13T05:29:19.485Z,8.40
2018-05-13T05:30:19.720Z,8.90
2018-05-13T05:31:19.959Z,8.40
2018-05-13T05:32:20.191Z,7.70
2018-05-13T05:33:20.432Z,8.10
2018-05-13T05:34:20.668Z,7.80
2018-05-13T05:35:20.905Z,8.40
2018-05-13T05:36:21.142Z,8.20
2018-05-13T05:37:21.381Z,7.90
2018-05-13T05:38:21.620Z,8.90
2018-05-13T05:39:21.859Z,8.50
2018-05-13T05:40:22.089Z,8.30
2018-05-13T05:41:22.326Z,7.70
2018-05-13T05:42:22.565Z,8.40
2018-05-13T05:43:22.805Z,10.10
2018-05-13T05:44:23.041Z,8.20
2018-05-13T05:45:23.279Z,8.50
2018-05-13T05:46:23.518Z,8.80
2018-05-13T05:47:23.760Z,8.60
2018-05-13T05:48:24.035Z,9.30
2018-05-13T05:49:24.237Z,9.10
2018-05-13T05:50:24.472Z,8.80
2018-05-13T05:51:24.709Z,9.60
2018-05-13T05:52:24.945Z,9.00
2018-05-13T05:53:25.183Z,8.70
2018-05-13T05:54:25.433Z,8.90
2018-05-13T05:55:25.657Z,8.30
2018-05-13T05:56:25.894Z,8.70
2018-05-13T05:57:26.132Z,8.60
2018-05-13T05:58:26.372Z,8.30
2018-05-13T05:59:26.612Z,9.10
2018-05-13T06:00:26.851Z,9.10
2018-05-13T06:01:27.087Z,8.40
2018-05-13T06:02:27.327Z,8.50
2018-05-13T06:03:27.566Z,7.90
2018-05-13T06:04:27.805Z,8.10
2018-05-13T06:05:28.042Z,8.40
2018-05-13T06:06:28.282Z,9.70
2018-05-13T06:07:28.519Z,9.80
2018-05-13T06:08:28.760Z,10.50
2018-05-13T06:09:28.996Z,9.10
2018-05-13T06:10:29.235Z,8.90
2018-05-13T06:11:29.480Z,8.20
2018-05-13T06:12:29.718Z,8.50
2018-05-13T06:13:29.956Z,9.00
2018-05-13T06:14:30.194Z,9.10
2018-05-13T06:15:30.434Z,9.00
2018-05-13T06:16:30.672Z,8.20
2018-05-13T06:17:30.912Z,8.40
2018-05-13T06:18:31.151Z,8.20
2018-05-13T06:19:31.417Z,8.00
2018-05-13T06:20:31.627Z,8.30
2018-05-13T06:21:31.863Z,8.20
2018-05-13T06:22:32.103Z,8.00
2018-05-13T06:23:32.337Z,8.20
2018-05-13T06:24:32.577Z,9.30
2018-05-13T06:25:32.815Z,9.00
2018-05-13T06:26:33.055Z,8.20
2018-05-13T06:27:33.292Z,8.60
2018-05-13T06:28:33.534Z,7.50
2018-05-13T06:29:33.773Z,8.60
2018-05-13T06:30:34.014Z,8.00
2018-05-13T06:31:34.253Z,8.00
2018-05-13T06:32:34.493Z,8.80
2018-05-13T06:33:34.735Z,7.60
2018-05-13T06:34:34.970Z,7.80
2018-05-13T06:35:35.209Z,7.80
2018-05-13T06:36:35.448Z,7.90
2018-05-13T06:37:35.686Z,7.90
2018-05-13T06:38:35.933Z,7.30
2018-05-13T06:39:36.201Z,7.40
2018-05-13T06:40:36.407Z,7.70
2018-05-13T06:41:36.646Z,7.60
2018-05-13T06:42:36.889Z,8.60
2018-05-13T06:43:37.125Z,8.10
2018-05-13T06:44:37.364Z,7.90
2018-05-13T06:45:37.603Z,8.20
2018-05-13T06:46:37.846Z,8.00
2018-05-13T06:47:38.091Z,7.40
2018-05-13T06:48:38.327Z,8.00
2018-05-13T06:49:38.566Z,7.50
2018-05-13T06:50:38.805Z,7.80
2018-05-13T06:51:39.044Z,7.80
2018-05-13T06:52:39.284Z,7.60
2018-05-13T06:53:39.520Z,7.50
2018-05-13T06:54:39.763Z,7.40
2018-05-13T06:55:40.001Z,7.80
2018-05-13T06:56:40.238Z,7.80
2018-05-13T06:57:40.476Z,7.60
2018-05-13T06:58:40.716Z,7.30
2018-05-13T06:59:40.955Z,6.90
2018-05-13T07:00:41.194Z,7.80
2018-05-13T07:01:41.443Z,7.40
2018-05-13T07:02:41.682Z,7.30
2018-05-13T07:03:41.918Z,7.80
2018-05-13T07:04:42.165Z,7.70
2018-05-13T07:05:42.408Z,8.10
2018-05-13T07:06:42.646Z,7.40
2018-05-13T07:07:42.884Z,7.10
2018-05-13T07:08:43.120Z,6.60
2018-05-13T07:09:43.359Z,7.40
2018-05-13T07:10:43.598Z,7.70
2018-05-13T07:11:43.836Z,7.50
2018-05-13T07:12:44.075Z,7.60
2018-05-13T07:13:44.313Z,7.80
2018-05-13T07:14:44.551Z,6.90
2018-05-13T07:15:44.789Z,7.50
2018-05-13T07:16:45.026Z,7.80
2018-05-13T07:17:45.267Z,7.80
2018-05-13T07:18:45.503Z,7.40
2018-05-13T07:19:45.739Z,6.70
2018-05-13T07:20:45.980Z,7.20
2018-05-13T07:21:46.214Z,7.80
2018-05-13T07:22:46.451Z,6.80
2018-05-13T07:23:46.690Z,7.70
2018-05-13T07:24:46.928Z,7.70
2018-05-13T07:25:47.165Z,7.40
2018-05-13T07:26:47.405Z,8.10
2018-05-13T07:27:47.641Z,7.00
2018-05-13T07:28:47.878Z,7.20
2018-05-13T07:29:48.201Z,7.40
2018-05-13T07:30:48.357Z,7.10
2018-05-13T07:31:48.594Z,8.00
2018-05-13T07:32:48.833Z,7.30
2018-05-13T07:33:49.074Z,7.40
2018-05-13T07:34:49.309Z,7.10
2018-05-13T07:35:49.546Z,6.90
2018-05-13T07:36:49.784Z,7.40
2018-05-13T07:37:50.019Z,8.00
2018-05-13T07:38:50.256Z,7.30
2018-05-13T07:39:50.495Z,7.30
2018-05-13T07:40:50.732Z,7.10
2018-05-13T07:41:50.968Z,8.00
2018-05-13T07:42:51.206Z,7.30
2018-05-13T07:43:51.443Z,6.80
2018-05-13T07:44:51.680Z,7.70
2018-05-13T07:45:51.917Z,8.00
2018-05-13T07:46:52.155Z,7.30
2018-05-13T07:47:52.391Z,7.50
2018-05-13T07:48:52.629Z,7.90
2018-05-13T07:49:52.865Z,7.40
2018-05-13T07:50:53.154Z,6.30
2018-05-13T07:51:53.340Z,7.30
2018-05-13T07:52:53.578Z,7.10
2018-05-13T07:53:53.814Z,7.30
2018-05-13T07:54:54.053Z,7.00
2018-05-13T07:55:54.289Z,7.50
2018-05-13T07:56:54.529Z,7.00
2018-05-13T07:57:54.828Z,7.50
2018-05-13T07:58:55.003Z,6.30
2018-05-13T07:59:55.237Z,7.50
2018-05-13T08:00:55.478Z,7.10
2018-05-13T08:01:55.712Z,7.30
2018-05-13T08:02:55.944Z,7.70
2018-05-13T08:03:56.183Z,7.90
2018-05-13T08:04:56.420Z,7.90
2018-05-13T08:05:56.656Z,10.10
2018-05-13T08:06:56.893Z,7.50
2018-05-13T08:07:57.127Z,7.80
2018-05-13T08:08:57.360Z,8.80
2018-05-13T08:09:57.597Z,7.40
2018-05-13T08:10:57.834Z,7.00
2018-05-13T08:11:58.069Z,7.80
2018-05-13T08:12:58.310Z,8.20
2018-05-13T08:13:58.583Z,7.40
2018-05-13T08:14:58.778Z,8.80
2018-05-13T08:15:59.014Z,7.20
2018-05-13T08:16:59.256Z,7.00
2018-05-13T08:17:59.491Z,7.80
2018-05-13T08:18:59.726Z,6.90
2018-05-13T08:19:59.962Z,6.80
2018-05-13T08:21:00.197Z,6.90
2018-05-13T08:22:00.437Z,8.00
2018-05-13T08:23:00.671Z,7.20
2018-05-13T08:24:00.908Z,7.40
2018-05-13T08:25:01.143Z,7.30
2018-05-13T08:26:01.382Z,7.30
2018-05-13T08:27:01.620Z,7.90
2018-05-13T08:28:01.855Z,7.50
2018-05-13T08:29:02.091Z,7.70
2018-05-13T08:30:02.329Z,7.00
2018-05-13T08:31:02.564Z,7.50
2018-05-13T08:32:02.799Z,7.00
2018-05-13T08:33:03.033Z,6.50
2018-05-13T08:34:03.268Z,6.80
2018-05-13T08:35:03.505Z,7.30
2018-05-13T08:36:03.744Z,7.30
2018-05-13T08:37:03.976Z,6.40
2018-05-13T08:38:04.213Z,7.30
2018-05-13T08:39:04.447Z,7.10
2018-05-13T08:40:04.683Z,7.30
2018-05-13T08:41:04.919Z,6.90
2018-05-13T08:42:05.157Z,8.00
2018-05-13T08:43:05.388Z,6.60
2018-05-13T08:44:05.624Z,7.80
2018-05-13T08:45:05.859Z,6.40
2018-05-13T08:46:06.096Z,6.40
2018-05-13T08:47:06.331Z,6.70
2018-05-13T08:48:06.635Z,7.20
2018-05-13T08:49:06.803Z,6.80
2018-05-13T08:50:07.042Z,6.90
2018-05-13T08:51:07.281Z,6.30
2018-05-13T08:52:07.516Z,6.30
2018-05-13T08:53:07.754Z,6.30
2018-05-13T08:54:07.993Z,6.40
2018-05-13T08:55:08.229Z,6.50
2018-05-13T08:56:08.465Z,5.80
2018-05-13T08:57:08.701Z,5.40
2018-05-13T08:58:08.931Z,7.10
2018-05-13T08:59:09.186Z,6.50
2018-05-13T09:00:09.420Z,6.60
2018-05-13T09:01:09.657Z,6.60
2018-05-13T09:02:09.896Z,6.90
2018-05-13T09:03:10.131Z,6.30
2018-05-13T09:04:10.369Z,6.90
2018-05-13T09:05:10.604Z,7.10
2018-05-13T09:06:10.841Z,6.90
2018-05-13T09:07:11.078Z,6.60
2018-05-13T09:08:11.316Z,6.20
2018-05-13T09:09:11.550Z,6.10
2018-05-13T09:10:11.793Z,6.20
2018-05-13T09:11:12.028Z,6.10
2018-05-13T09:12:12.263Z,6.20
2018-05-13T09:13:12.497Z,6.60
2018-05-13T09:14:12.822Z,6.10
2018-05-13T09:15:12.972Z,5.80
2018-05-13T09:16:13.212Z,6.00
2018-05-13T09:17:13.445Z,6.20
2018-05-13T09:18:13.685Z,5.50
2018-05-13T09:19:13.919Z,6.80
2018-05-13T09:20:14.157Z,6.30
2018-05-13T09:21:14.391Z,6.40
2018-05-13T09:22:14.627Z,5.40
2018-05-13T09:23:14.862Z,6.60
2018-05-13T09:24:15.097Z,6.50
2018-05-13T09:25:15.335Z,6.50
2018-05-13T09:26:15.575Z,5.80
2018-05-13T09:27:15.815Z,5.90
2018-05-13T09:28:16.048Z,6.10
2018-05-13T09:29:16.285Z,5.20
2018-05-13T09:30:16.524Z,5.70
2018-05-13T09:31:16.759Z,5.40
2018-05-13T09:32:16.997Z,5.40
2018-05-13T09:33:17.233Z,5.10
2018-05-13T09:34:17.471Z,5.20
2018-05-13T09:35:17.707Z,5.50
2018-05-13T09:36:17.946Z,4.90
2018-05-13T09:37:18.184Z,5.60
2018-05-13T09:38:18.420Z,5.60
2018-05-13T09:39:18.658Z,5.70
2018-05-13T09:40:18.896Z,5.80
2018-05-13T09:41:19.132Z,5.30
2018-05-13T09:42:19.372Z,5.40
2018-05-13T09:43:19.606Z,5.70
2018-05-13T09:44:19.843Z,5.60
2018-05-13T09:45:20.082Z,5.20
2018-05-13T09:46:20.318Z,5.70
2018-05-13T09:47:20.554Z,5.60
2018-05-13T09:48:20.805Z,5.40
2018-05-13T09:49:21.028Z,5.90
2018-05-13T09:50:21.269Z,4.90
2018-05-13T09:51:21.537Z,5.70
2018-05-13T09:52:21.748Z,5.50
2018-05-13T09:53:21.980Z,5.20
2018-05-13T09:54:22.218Z,5.10
2018-05-13T09:55:22.458Z,5.30
2018-05-13T09:56:22.700Z,5.40
2018-05-13T09:57:22.935Z,5.20
2018-05-13T09:58:23.173Z,5.10
2018-05-13T09:59:23.411Z,5.30
2018-05-13T10:00:23.647Z,5.80
2018-05-13T10:01:23.886Z,5.20
2018-05-13T10:02:24.128Z,5.30
2018-05-13T10:03:24.367Z,5.30
2018-05-13T10:04:24.607Z,5.60
2018-05-13T10:05:24.839Z,5.30
2018-05-13T10:06:25.080Z,4.60
2018-05-13T10:07:25.315Z,5.80
2018-05-13T10:08:25.552Z,5.10
2018-05-13T10:09:25.810Z,4.80
2018-05-13T10:10:26.029Z,4.60
2018-05-13T10:11:26.274Z,4.90
2018-05-13T10:12:26.506Z,5.40
2018-05-13T10:13:26.740Z,4.50
2018-05-13T10:14:26.981Z,5.00
2018-05-13T10:15:27.220Z,5.40
2018-05-13T10:16:27.458Z,5.30
2018-05-13T10:17:27.692Z,4.90
2018-05-13T10:18:27.935Z,4.90
2018-05-13T10:19:28.182Z,5.60
2018-05-13T10:20:28.540Z,4.70
2018-05-13T10:21:28.681Z,5.30
2018-05-13T10:22:28.921Z,5.30
2018-05-13T10:23:29.155Z,4.70
2018-05-13T10:24:29.395Z,4.70
2018-05-13T10:25:29.634Z,5.10
2018-05-13T10:26:29.869Z,5.40
2018-05-13T10:27:30.110Z,5.00
2018-05-13T10:28:30.350Z,5.10
2018-05-13T10:29:30.589Z,5.10
2018-05-13T10:30:30.826Z,5.50
2018-05-13T10:31:31.065Z,5.30
2018-05-13T10:32:31.302Z,4.50
2018-05-13T10:33:31.609Z,4.70
2018-05-13T10:34:31.823Z,4.50
2018-05-13T10:35:32.005Z,4.40
2018-05-13T10:36:32.217Z,5.10
2018-05-13T10:37:32.461Z,4.90
2018-05-13T10:38:32.696Z,4.50
2018-05-13T10:39:32.931Z,5.10
2018-05-13T10:40:33.166Z,4.80
2018-05-13T10:41:33.417Z,4.90
2018-05-13T10:42:33.694Z,5.00
2018-05-13T10:43:33.889Z,4.70
2018-05-13T10:44:34.126Z,5.10
2018-05-13T10:45:34.366Z,4.70
2018-05-13T10:46:34.603Z,4.70
2018-05-13T10:47:34.842Z,4.30
2018-05-13T10:48:35.085Z,4.70
2018-05-13T10:49:35.325Z,4.70
2018-05-13T10:50:35.559Z,4.60
2018-05-13T10:51:35.798Z,4.60
2018-05-13T10:52:36.038Z,4.60
2018-05-13T10:53:36.284Z,4.40
2018-05-13T10:54:36.519Z,4.70
2018-05-13T10:55:36.763Z,4.90
2018-05-13T10:56:37.000Z,4.10
2018-05-13T10:57:37.237Z,4.50
2018-05-13T10:58:37.478Z,4.40
2018-05-13T10:59:37.720Z,5.00
2018-05-13T11:00:37.964Z,5.00
2018-05-13T11:01:38.199Z,4.80
2018-05-13T11:02:38.439Z,4.80
2018-05-13T11:03:38.683Z,4.80
2018-05-13T11:04:38.993Z,4.90
2018-05-13T11:05:39.157Z,5.60
2018-05-13T11:06:39.398Z,5.60
2018-05-13T11:07:39.632Z,5.70
2018-05-13T11:08:39.876Z,5.00
2018-05-13T11:09:40.109Z,5.80
2018-05-13T11:10:40.359Z,6.10
2018-05-13T11:11:40.594Z,6.30
2018-05-13T11:12:40.834Z,6.80
2018-05-13T11:13:41.073Z,5.70
2018-05-13T11:14:41.312Z,7.70
2018-05-13T11:15:41.554Z,7.00
2018-05-13T11:16:41.793Z,6.40
2018-05-13T11:17:42.036Z,6.10
2018-05-13T11:18:42.273Z,6.20
2018-05-13T11:19:42.557Z,5.50
2018-05-13T11:20:42.796Z,5.40
2018-05-13T11:21:42.993Z,5.70
2018-05-13T11:22:43.291Z,5.70
2018-05-13T11:23:43.475Z,6.70
2018-05-13T11:24:43.713Z,7.00
2018-05-13T11:25:43.954Z,5.80
2018-05-13T11:26:44.242Z,5.80
2018-05-13T11:27:44.425Z,5.30
2018-05-13T11:28:44.667Z,5.60
2018-05-13T11:29:44.909Z,5.40
2018-05-13T11:30:45.147Z,5.60
2018-05-13T11:31:45.386Z,5.40
2018-05-13T11:32:45.625Z,5.00
2018-05-13T11:33:45.875Z,5.50
2018-05-13T11:34:46.101Z,4.80
2018-05-13T11:35:46.338Z,5.20
2018-05-13T11:36:46.582Z,5.40
2018-05-13T11:37:46.813Z,4.70
2018-05-13T11:38:47.054Z,4.60
2018-05-13T11:39:47.291Z,4.80
2018-05-13T11:40:47.528Z,5.10
2018-05-13T11:41:47.768Z,5.00
2018-05-13T11:42:48.007Z,5.20
2018-05-13T11:43:48.245Z,5.30
2018-05-13T11:44:48.473Z,5.30
2018-05-13T11:45:48.712Z,5.20
2018-05-13T11:46:49.017Z,4.70
2018-05-13T11:47:49.183Z,5.40
2018-05-13T11:48:49.424Z,5.20
2018-05-13T11:49:49.657Z,4.80
2018-05-13T11:50:49.947Z,5.20
2018-05-13T11:51:50.152Z,4.80
2018-05-13T11:52:50.392Z,5.10
2018-05-13T11:53:50.633Z,5.40
2018-05-13T11:54:50.871Z,5.20
2018-05-13T11:55:51.112Z,5.60
2018-05-13T11:56:51.349Z,5.40
2018-05-13T11:57:51.593Z,6.00
2018-05-13T11:58:51.831Z,6.40
2018-05-13T11:59:52.067Z,6.00
2018-05-13T12:00:52.334Z,6.60
2018-05-13T12:01:52.576Z,5.60
2018-05-13T12:02:52.817Z,5.80
2018-05-13T12:03:53.054Z,5.80
2018-05-13T12:04:53.290Z,6.10
2018-05-13T12:05:53.534Z,5.60
2018-05-13T12:06:53.766Z,5.70
2018-05-13T12:07:54.005Z,5.20
2018-05-13T12:08:54.246Z,5.80
2018-05-13T12:09:54.483Z,5.50
2018-05-13T12:10:54.725Z,5.90
2018-05-13T12:11:54.963Z,6.00
2018-05-13T12:12:55.204Z,5.70
2018-05-13T12:13:55.441Z,5.70
2018-05-13T12:14:55.678Z,5.60
2018-05-13T12:15:55.914Z,5.70
2018-05-13T12:16:56.153Z,6.00
2018-05-13T12:17:56.390Z,4.70
2018-05-13T12:18:56.625Z,5.60
2018-05-13T12:19:56.879Z,5.10
2018-05-13T12:20:57.125Z,5.10
2018-05-13T12:21:57.354Z,5.30
2018-05-13T12:22:57.599Z,5.60
2018-05-13T12:23:57.836Z,5.70
2018-05-13T12:24:58.071Z,5.60
2018-05-13T12:25:58.316Z,5.20
2018-05-13T12:26:58.555Z,5.10
2018-05-13T12:27:58.797Z,5.40
2018-05-13T12:28:59.049Z,5.30
2018-05-13T12:29:59.269Z,5.30
2018-05-13T12:30:59.507Z,5.80
2018-05-13T12:31:59.749Z,6.10
2018-05-13T12:32:59.986Z,5.90
2018-05-13T12:34:00.222Z,6.00
2018-05-13T12:35:00.458Z,5.40
2018-05-13T12:36:00.699Z,5.40
2018-05-13T12:37:00.936Z,5.70
2018-05-13T12:38:01.186Z,5.20
2018-05-13T12:39:01.412Z,5.40
2018-05-13T12:40:01.651Z,5.20
2018-05-13T12:41:01.889Z,5.40
2018-05-13T12:42:02.129Z,4.90
2018-05-13T12:43:02.376Z,5.30
2018-05-13T12:44:02.613Z,4.90
2018-05-13T12:45:02.854Z,5.20
2018-05-13T12:46:03.091Z,4.90
2018-05-13T12:47:03.333Z,4.90
2018-05-13T12:48:03.570Z,5.50
2018-05-13T12:49:03.806Z,5.60
2018-05-13T12:50:04.137Z,5.10
2018-05-13T12:51:04.289Z,5.40
2018-05-13T12:52:04.524Z,6.00
2018-05-13T12:53:04.761Z,5.50
2018-05-13T12:54:04.992Z,5.50
2018-05-13T12:55:05.230Z,6.10
2018-05-13T12:56:05.470Z,6.00
2018-05-13T12:57:05.728Z,5.70
2018-05-13T12:58:05.968Z,6.30
2018-05-13T12:59:06.202Z,6.50
2018-05-13T13:00:06.443Z,6.00
2018-05-13T13:01:06.680Z,6.40
2018-05-13T13:02:06.915Z,5.70
2018-05-13T13:03:07.156Z,6.90
2018-05-13T13:04:07.393Z,6.80
2018-05-13T13:05:07.631Z,6.90
2018-05-13T13:06:07.865Z,7.10
2018-05-13T13:07:08.111Z,7.10
2018-05-13T13:08:08.344Z,7.30
2018-05-13T13:09:08.680Z,6.70
2018-05-13T13:10:08.825Z,6.90
2018-05-13T13:11:09.068Z,7.20
2018-05-13T13:12:09.302Z,7.00
2018-05-13T13:13:09.541Z,7.10
2018-05-13T13:14:09.777Z,7.20
2018-05-13T13:15:10.177Z,7.20
2018-05-13T13:16:10.255Z,7.40
2018-05-13T13:17:10.494Z,7.30